Terminal Aerodrome Forecast
Issued by NWS

Home | Current Version | Previous Version | Text Only | Print | Product List | Glossary On
Versions: 1 2 3 4 5 6 7 8 9 10 11 12 13
524
FTUS42 KMLB 282341
TAFISM
TAF
KISM 282341Z 2900/2924 28007KT P6SM SKC
     FM290900 31004KT P6SM MIFG SCT006
     FM291300 29007KT P6SM SCT025=

USA.gov is the U.S. government's official web portal to all federal, state and local government web resources and services.